sensor_id;sensor_type;location;lat;lon;timestamp;temperature;humidity
12374;DHT22;6251;51.762;8.660;2023-06-10T01:14:17;15.60;99.90
12374;DHT22;6251;51.762;8.660;2023-06-10T02:46:55;14.50;99.90
12374;DHT22;6251;51.762;8.660;2023-06-10T02:56:56;14.40;99.90
12374;DHT22;6251;51.762;8.660;2023-06-10T04:07:59;14.00;99.90
12374;DHT22;6251;51.762;8.660;2023-06-10T04:17:59;14.10;99.90
12374;DHT22;6251;51.762;8.660;2023-06-10T04:28:02;14.10;99.90
12374;DHT22;6251;51.762;8.660;2023-06-10T04:38:03;14.20;99.90
12374;DHT22;6251;51.762;8.660;2023-06-10T04:48:05;14.40;99.90
12374;DHT22;6251;51.762;8.660;2023-06-10T04:58:05;14.50;99.90
12374;DHT22;6251;51.762;8.660;2023-06-10T05:08:06;14.80;99.90
12374;DHT22;6251;51.762;8.660;2023-06-10T05:18:07;15.10;99.90
12374;DHT22;6251;51.762;8.660;2023-06-10T05:28:07;15.40;99.90
12374;DHT22;6251;51.762;8.660;2023-06-10T05:38:10;15.70;99.90
12374;DHT22;6251;51.762;8.660;2023-06-10T05:48:10;16.10;99.90
12374;DHT22;6251;51.762;8.660;2023-06-10T05:58:12;16.40;99.90
12374;DHT22;6251;51.762;8.660;2023-06-10T06:08:13;16.70;99.90
12374;DHT22;6251;51.762;8.660;2023-06-10T06:18:14;17.10;99.90
12374;DHT22;6251;51.762;8.660;2023-06-10T06:28:14;17.50;99.90
12374;DHT22;6251;51.762;8.660;2023-06-10T06:38:15;17.90;99.90
12374;DHT22;6251;51.762;8.660;2023-06-10T06:48:15;18.30;99.90
12374;DHT22;6251;51.762;8.660;2023-06-10T06:58:16;18.70;99.90
12374;DHT22;6251;51.762;8.660;2023-06-10T07:08:17;19.20;99.90
12374;DHT22;6251;51.762;8.660;2023-06-10T07:18:17;19.70;99.90
12374;DHT22;6251;51.762;8.660;2023-06-10T07:28:18;20.20;99.40
12374;DHT22;6251;51.762;8.660;2023-06-10T07:38:18;20.60;99.80
12374;DHT22;6251;51.762;8.660;2023-06-10T07:48:19;20.90;95.80
12374;DHT22;6251;51.762;8.660;2023-06-10T07:58:20;21.40;94.90
12374;DHT22;6251;51.762;8.660;2023-06-10T08:08:21;21.80;93.40
12374;DHT22;6251;51.762;8.660;2023-06-10T08:18:22;22.20;93.00
12374;DHT22;6251;51.762;8.660;2023-06-10T08:28:23;22.50;93.10
12374;DHT22;6251;51.762;8.660;2023-06-10T08:38:23;22.80;92.80
12374;DHT22;6251;51.762;8.660;2023-06-10T08:48:26;23.30;91.80
12374;DHT22;6251;51.762;8.660;2023-06-10T08:58:27;23.70;90.90
12374;DHT22;6251;51.762;8.660;2023-06-10T09:08:28;24.00;89.80
12374;DHT22;6251;51.762;8.660;2023-06-10T09:18:29;24.20;89.90
12374;DHT22;6251;51.762;8.660;2023-06-10T09:28:31;24.50;89.50
12374;DHT22;6251;51.762;8.660;2023-06-10T09:38:33;24.70;87.60
12374;DHT22;6251;51.762;8.660;2023-06-10T09:48:44;25.00;86.80
12374;DHT22;6251;51.762;8.660;2023-06-10T09:58:45;25.30;87.00
12374;DHT22;6251;51.762;8.660;2023-06-10T10:08:48;25.60;85.40
12374;DHT22;6251;51.762;8.660;2023-06-10T10:19:04;25.80;83.20
12374;DHT22;6251;51.762;8.660;2023-06-10T10:29:16;26.20;84.10
12374;DHT22;6251;51.762;8.660;2023-06-10T10:39:20;26.50;79.10
12374;DHT22;6251;51.762;8.660;2023-06-10T10:49:22;26.70;80.10
12374;DHT22;6251;51.762;8.660;2023-06-10T10:59:23;26.90;79.10
12374;DHT22;6251;51.762;8.660;2023-06-10T11:09:28;27.20;78.90
12374;DHT22;6251;51.762;8.660;2023-06-10T11:19:36;27.40;77.60
12374;DHT22;6251;51.762;8.660;2023-06-10T11:29:38;27.60;76.30
12374;DHT22;6251;51.762;8.660;2023-06-10T11:39:39;27.90;74.40
12374;DHT22;6251;51.762;8.660;2023-06-10T11:49:39;28.10;71.90
12374;DHT22;6251;51.762;8.660;2023-06-10T11:59:40;28.30;67.90
12374;DHT22;6251;51.762;8.660;2023-06-10T12:09:41;28.60;69.90
12374;DHT22;6251;51.762;8.660;2023-06-10T12:19:41;28.90;69.60
12374;DHT22;6251;51.762;8.660;2023-06-10T12:29:51;29.00;67.60
12374;DHT22;6251;51.762;8.660;2023-06-10T12:39:54;29.30;68.10
12374;DHT22;6251;51.762;8.660;2023-06-10T12:49:54;29.40;67.10
12374;DHT22;6251;51.762;8.660;2023-06-10T12:59:55;29.50;65.60
12374;DHT22;6251;51.762;8.660;2023-06-10T13:10:00;29.80;64.70
12374;DHT22;6251;51.762;8.660;2023-06-10T13:20:05;29.90;64.30
12374;DHT22;6251;51.762;8.660;2023-06-10T13:30:07;30.10;65.50
12374;DHT22;6251;51.762;8.660;2023-06-10T13:40:09;30.20;63.20
12374;DHT22;6251;51.762;8.660;2023-06-10T13:50:10;30.40;65.10
12374;DHT22;6251;51.762;8.660;2023-06-10T14:00:11;30.50;64.40
12374;DHT22;6251;51.762;8.660;2023-06-10T14:10:11;30.60;62.70
12374;DHT22;6251;51.762;8.660;2023-06-10T14:20:12;30.80;64.40
12374;DHT22;6251;51.762;8.660;2023-06-10T14:30:13;30.90;64.50
12374;DHT22;6251;51.762;8.660;2023-06-10T14:40:14;31.20;62.20
12374;DHT22;6251;51.762;8.660;2023-06-10T14:50:15;31.60;63.40
12374;DHT22;6251;51.762;8.660;2023-06-10T15:00:16;31.70;63.30
12374;DHT22;6251;51.762;8.660;2023-06-10T15:10:20;31.40;64.70
12374;DHT22;6251;51.762;8.660;2023-06-10T15:20:22;32.30;62.90
12374;DHT22;6251;51.762;8.660;2023-06-10T15:30:23;33.30;59.80
12374;DHT22;6251;51.762;8.660;2023-06-10T15:40:23;34.90;58.20
12374;DHT22;6251;51.762;8.660;2023-06-10T15:50:24;36.20;57.70
12374;DHT22;6251;51.762;8.660;2023-06-10T16:00:25;35.30;56.10
12374;DHT22;6251;51.762;8.660;2023-06-10T16:10:25;34.50;56.30
12374;DHT22;6251;51.762;8.660;2023-06-10T16:20:26;33.50;55.70
12374;DHT22;6251;51.762;8.660;2023-06-10T16:30:27;34.10;58.20
12374;DHT22;6251;51.762;8.660;2023-06-10T16:40:27;36.10;54.30
12374;DHT22;6251;51.762;8.660;2023-06-10T16:50:28;40.50;46.10
12374;DHT22;6251;51.762;8.660;2023-06-10T17:00:28;41.20;41.60
12374;DHT22;6251;51.762;8.660;2023-06-10T17:10:29;40.20;41.80
12374;DHT22;6251;51.762;8.660;2023-06-10T17:20:29;37.20;42.00
12374;DHT22;6251;51.762;8.660;2023-06-10T17:30:31;35.80;44.70
12374;DHT22;6251;51.762;8.660;2023-06-10T17:40:31;34.20;47.10
12374;DHT22;6251;51.762;8.660;2023-06-10T17:50:32;36.00;46.80
12374;DHT22;6251;51.762;8.660;2023-06-10T18:00:33;37.40;45.50
12374;DHT22;6251;51.762;8.660;2023-06-10T18:10:33;35.30;48.70
12374;DHT22;6251;51.762;8.660;2023-06-10T18:20:34;33.40;52.20
12374;DHT22;6251;51.762;8.660;2023-06-10T18:30:34;32.50;54.90
12374;DHT22;6251;51.762;8.660;2023-06-10T18:40:35;31.90;54.60
12374;DHT22;6251;51.762;8.660;2023-06-10T18:50:35;30.00;63.60
12374;DHT22;6251;51.762;8.660;2023-06-10T19:00:36;28.50;64.40
12374;DHT22;6251;51.762;8.660;2023-06-10T19:10:37;27.00;66.40
12374;DHT22;6251;51.762;8.660;2023-06-10T19:20:37;26.10;69.20
12374;DHT22;6251;51.762;8.660;2023-06-10T19:30:41;25.40;70.70
12374;DHT22;6251;51.762;8.660;2023-06-10T19:40:41;24.80;72.30
12374;DHT22;6251;51.762;8.660;2023-06-10T19:50:42;24.30;74.90
12374;DHT22;6251;51.762;8.660;2023-06-10T20:00:43;23.70;76.40
12374;DHT22;6251;51.762;8.660;2023-06-10T20:10:43;23.20;78.40
12374;DHT22;6251;51.762;8.660;2023-06-10T20:20:45;22.70;80.70
12374;DHT22;6251;51.762;8.660;2023-06-10T20:30:46;22.30;83.90
12374;DHT22;6251;51.762;8.660;2023-06-10T20:40:46;21.80;87.10
12374;DHT22;6251;51.762;8.660;2023-06-10T20:50:47;21.40;89.60
12374;DHT22;6251;51.762;8.660;2023-06-10T21:10:58;20.70;92.70
12374;DHT22;6251;51.762;8.660;2023-06-10T21:20:59;20.40;94.80
12374;DHT22;6251;51.762;8.660;2023-06-10T21:31:00;20.20;96.60
12374;DHT22;6251;51.762;8.660;2023-06-10T21:41:02;19.90;98.00
12374;DHT22;6251;51.762;8.660;2023-06-10T21:51:03;19.60;99.50
12374;DHT22;6251;51.762;8.660;2023-06-10T22:01:03;19.40;99.90
12374;DHT22;6251;51.762;8.660;2023-06-10T22:11:04;19.10;99.90
12374;DHT22;6251;51.762;8.660;2023-06-10T22:21:05;19.00;99.90
12374;DHT22;6251;51.762;8.660;2023-06-10T22:31:07;18.80;99.90
12374;DHT22;6251;51.762;8.660;2023-06-10T22:41:07;18.70;99.90
12374;DHT22;6251;51.762;8.660;2023-06-10T22:51:08;18.50;99.90
12374;DHT22;6251;51.762;8.660;2023-06-10T23:01:09;18.40;99.90
12374;DHT22;6251;51.762;8.660;2023-06-10T23:11:10;18.20;99.90
